sensor_id;sensor_type;location;lat;lon;timestamp;P1;durP1;ratioP1;P2;durP2;ratioP2
49502;SDS011;35409;48.776;9.204;2023-05-07T00:00:19;2.60;;;2.30;;
49502;SDS011;35409;48.776;9.204;2023-05-07T00:02:45;2.50;;;2.05;;
49502;SDS011;35409;48.776;9.204;2023-05-07T00:05:10;2.47;;;2.00;;
49502;SDS011;35409;48.776;9.204;2023-05-07T00:07:36;3.50;;;2.50;;
49502;SDS011;35409;48.776;9.204;2023-05-07T00:10:02;2.45;;;2.25;;
49502;SDS011;35409;48.776;9.204;2023-05-07T00:12:28;3.70;;;2.28;;
49502;SDS011;35409;48.776;9.204;2023-05-07T00:14:56;3.17;;;2.88;;
49502;SDS011;35409;48.776;9.204;2023-05-07T00:17:22;4.65;;;2.97;;
49502;SDS011;35409;48.776;9.204;2023-05-07T00:19:48;3.22;;;2.70;;
49502;SDS011;35409;48.776;9.204;2023-05-07T00:22:13;3.25;;;2.60;;
49502;SDS011;35409;48.776;9.204;2023-05-07T00:24:39;4.50;;;3.38;;
49502;SDS011;35409;48.776;9.204;2023-05-07T00:27:04;4.38;;;3.13;;
49502;SDS011;35409;48.776;9.204;2023-05-07T00:29:30;3.63;;;2.90;;
49502;SDS011;35409;48.776;9.204;2023-05-07T00:31:56;3.25;;;2.80;;
49502;SDS011;35409;48.776;9.204;2023-05-07T00:34:21;4.05;;;3.30;;
49502;SDS011;35409;48.776;9.204;2023-05-07T00:36:47;4.53;;;3.25;;
49502;SDS011;35409;48.776;9.204;2023-05-07T00:39:13;3.72;;;2.83;;
49502;SDS011;35409;48.776;9.204;2023-05-07T00:41:38;5.38;;;3.55;;
49502;SDS011;35409;48.776;9.204;2023-05-07T00:44:04;3.13;;;2.78;;
49502;SDS011;35409;48.776;9.204;2023-05-07T00:46:30;3.45;;;2.97;;
49502;SDS011;35409;48.776;9.204;2023-05-07T00:48:57;4.18;;;3.20;;
49502;SDS011;35409;48.776;9.204;2023-05-07T00:51:24;5.55;;;3.80;;
49502;SDS011;35409;48.776;9.204;2023-05-07T00:53:52;3.72;;;3.10;;
49502;SDS011;35409;48.776;9.204;2023-05-07T00:56:18;4.10;;;3.40;;
49502;SDS011;35409;48.776;9.204;2023-05-07T00:58:45;4.13;;;3.08;;
49502;SDS011;35409;48.776;9.204;2023-05-07T01:01:11;3.55;;;3.05;;
49502;SDS011;35409;48.776;9.204;2023-05-07T01:03:37;3.95;;;3.08;;
49502;SDS011;35409;48.776;9.204;2023-05-07T01:06:02;4.95;;;2.60;;
49502;SDS011;35409;48.776;9.204;2023-05-07T01:08:29;5.07;;;2.92;;
49502;SDS011;35409;48.776;9.204;2023-05-07T01:10:57;3.63;;;3.17;;
49502;SDS011;35409;48.776;9.204;2023-05-07T01:13:24;5.70;;;2.75;;
49502;SDS011;35409;48.776;9.204;2023-05-07T01:15:50;3.60;;;2.95;;
49502;SDS011;35409;48.776;9.204;2023-05-07T01:18:16;5.90;;;3.08;;
49502;SDS011;35409;48.776;9.204;2023-05-07T01:20:42;5.00;;;3.00;;
49502;SDS011;35409;48.776;9.204;2023-05-07T01:23:07;7.10;;;3.78;;
49502;SDS011;35409;48.776;9.204;2023-05-07T01:25:35;4.20;;;3.53;;
49502;SDS011;35409;48.776;9.204;2023-05-07T01:28:01;5.75;;;3.80;;
49502;SDS011;35409;48.776;9.204;2023-05-07T01:30:27;4.90;;;4.30;;
49502;SDS011;35409;48.776;9.204;2023-05-07T01:32:56;4.93;;;3.63;;
49502;SDS011;35409;48.776;9.204;2023-05-07T01:35:28;4.53;;;3.35;;
49502;SDS011;35409;48.776;9.204;2023-05-07T01:37:55;3.40;;;3.10;;
49502;SDS011;35409;48.776;9.204;2023-05-07T01:40:22;5.65;;;3.58;;
49502;SDS011;35409;48.776;9.204;2023-05-07T01:42:48;4.88;;;3.83;;
49502;SDS011;35409;48.776;9.204;2023-05-07T01:45:14;5.53;;;3.47;;
49502;SDS011;35409;48.776;9.204;2023-05-07T01:47:40;6.80;;;3.42;;
49502;SDS011;35409;48.776;9.204;2023-05-07T01:50:07;4.97;;;3.47;;
49502;SDS011;35409;48.776;9.204;2023-05-07T01:52:33;3.67;;;3.10;;
49502;SDS011;35409;48.776;9.204;2023-05-07T01:54:59;6.10;;;3.53;;
49502;SDS011;35409;48.776;9.204;2023-05-07T01:57:25;4.22;;;3.83;;
49502;SDS011;35409;48.776;9.204;2023-05-07T01:59:51;8.05;;;3.72;;
49502;SDS011;35409;48.776;9.204;2023-05-07T02:02:17;4.63;;;3.67;;
49502;SDS011;35409;48.776;9.204;2023-05-07T02:04:43;4.47;;;3.70;;
49502;SDS011;35409;48.776;9.204;2023-05-07T02:07:09;7.07;;;3.83;;
49502;SDS011;35409;48.776;9.204;2023-05-07T02:09:35;5.40;;;3.63;;
49502;SDS011;35409;48.776;9.204;2023-05-07T02:12:01;5.35;;;3.92;;
49502;SDS011;35409;48.776;9.204;2023-05-07T02:14:27;4.45;;;3.55;;
49502;SDS011;35409;48.776;9.204;2023-05-07T02:16:53;4.68;;;3.65;;
49502;SDS011;35409;48.776;9.204;2023-05-07T02:19:19;7.38;;;3.90;;
49502;SDS011;35409;48.776;9.204;2023-05-07T02:21:46;6.47;;;4.38;;
49502;SDS011;35409;48.776;9.204;2023-05-07T02:24:12;6.40;;;4.05;;
49502;SDS011;35409;48.776;9.204;2023-05-07T02:26:39;6.53;;;4.07;;
49502;SDS011;35409;48.776;9.204;2023-05-07T02:29:06;5.07;;;3.97;;
49502;SDS011;35409;48.776;9.204;2023-05-07T02:31:32;5.75;;;4.00;;
49502;SDS011;35409;48.776;9.204;2023-05-07T02:34:01;7.03;;;4.85;;
49502;SDS011;35409;48.776;9.204;2023-05-07T02:36:27;7.30;;;4.65;;
49502;SDS011;35409;48.776;9.204;2023-05-07T02:38:53;6.72;;;4.85;;
49502;SDS011;35409;48.776;9.204;2023-05-07T02:41:19;7.03;;;4.85;;
49502;SDS011;35409;48.776;9.204;2023-05-07T02:43:45;5.22;;;4.35;;
49502;SDS011;35409;48.776;9.204;2023-05-07T02:46:11;6.53;;;4.25;;
49502;SDS011;35409;48.776;9.204;2023-05-07T02:48:37;6.18;;;4.60;;
49502;SDS011;35409;48.776;9.204;2023-05-07T02:51:03;5.78;;;4.72;;
49502;SDS011;35409;48.776;9.204;2023-05-07T02:53:30;7.28;;;4.72;;
49502;SDS011;35409;48.776;9.204;2023-05-07T02:55:56;5.65;;;4.43;;
49502;SDS011;35409;48.776;9.204;2023-05-07T02:58:23;4.95;;;4.00;;
49502;SDS011;35409;48.776;9.204;2023-05-07T03:00:49;5.88;;;4.60;;
49502;SDS011;35409;48.776;9.204;2023-05-07T03:03:14;5.85;;;4.55;;
49502;SDS011;35409;48.776;9.204;2023-05-07T03:05:40;4.93;;;3.80;;
49502;SDS011;35409;48.776;9.204;2023-05-07T03:08:06;4.95;;;4.30;;
49502;SDS011;35409;48.776;9.204;2023-05-07T03:10:32;6.80;;;4.80;;
49502;SDS011;35409;48.776;9.204;2023-05-07T03:12:58;9.25;;;4.70;;
49502;SDS011;35409;48.776;9.204;2023-05-07T03:15:24;5.38;;;3.92;;
49502;SDS011;35409;48.776;9.204;2023-05-07T03:17:49;4.88;;;3.88;;
49502;SDS011;35409;48.776;9.204;2023-05-07T03:20:15;5.20;;;4.10;;
49502;SDS011;35409;48.776;9.204;2023-05-07T03:22:40;6.68;;;3.63;;
49502;SDS011;35409;48.776;9.204;2023-05-07T03:25:06;4.68;;;3.80;;
49502;SDS011;35409;48.776;9.204;2023-05-07T03:27:33;4.35;;;3.55;;
49502;SDS011;35409;48.776;9.204;2023-05-07T03:29:59;5.25;;;4.10;;
49502;SDS011;35409;48.776;9.204;2023-05-07T03:32:25;4.18;;;3.75;;
49502;SDS011;35409;48.776;9.204;2023-05-07T03:34:51;5.28;;;3.70;;
49502;SDS011;35409;48.776;9.204;2023-05-07T03:37:16;7.13;;;3.88;;
49502;SDS011;35409;48.776;9.204;2023-05-07T03:39:42;6.53;;;4.20;;
49502;SDS011;35409;48.776;9.204;2023-05-07T03:42:08;8.52;;;4.82;;
49502;SDS011;35409;48.776;9.204;2023-05-07T03:44:33;6.55;;;4.07;;
49502;SDS011;35409;48.776;9.204;2023-05-07T03:47:01;6.32;;;3.97;;
49502;SDS011;35409;48.776;9.204;2023-05-07T03:49:27;4.95;;;3.55;;
49502;SDS011;35409;48.776;9.204;2023-05-07T03:51:52;4.95;;;3.40;;
49502;SDS011;35409;48.776;9.204;2023-05-07T03:54:18;6.95;;;3.70;;
49502;SDS011;35409;48.776;9.204;2023-05-07T03:56:43;5.00;;;4.05;;
49502;SDS011;35409;48.776;9.204;2023-05-07T03:59:09;5.82;;;3.42;;
49502;SDS011;35409;48.776;9.204;2023-05-07T04:01:34;4.13;;;3.20;;
49502;SDS011;35409;48.776;9.204;2023-05-07T04:04:00;5.25;;;3.42;;
49502;SDS011;35409;48.776;9.204;2023-05-07T04:06:26;4.70;;;3.75;;
49502;SDS011;35409;48.776;9.204;2023-05-07T04:08:52;3.35;;;3.05;;
49502;SDS011;35409;48.776;9.204;2023-05-07T04:11:18;4.20;;;3.28;;
49502;SDS011;35409;48.776;9.204;2023-05-07T04:13:43;5.40;;;3.75;;
49502;SDS011;35409;48.776;9.204;2023-05-07T04:16:09;5.38;;;3.63;;
49502;SDS011;35409;48.776;9.204;2023-05-07T04:18:34;4.68;;;3.58;;
49502;SDS011;35409;48.776;9.204;2023-05-07T04:21:00;8.23;;;4.05;;
49502;SDS011;35409;48.776;9.204;2023-05-07T04:23:26;6.05;;;3.33;;
49502;SDS011;35409;48.776;9.204;2023-05-07T04:25:51;4.55;;;3.38;;
49502;SDS011;35409;48.776;9.204;2023-05-07T04:28:19;4.35;;;3.88;;
49502;SDS011;35409;48.776;9.204;2023-05-07T04:30:45;4.82;;;3.47;;
49502;SDS011;35409;48.776;9.204;2023-05-07T04:33:11;4.65;;;4.00;;
49502;SDS011;35409;48.776;9.204;2023-05-07T04:35:36;5.78;;;3.97;;
49502;SDS011;35409;48.776;9.204;2023-05-07T04:38:02;5.28;;;4.07;;
49502;SDS011;35409;48.776;9.204;2023-05-07T04:40:28;4.65;;;3.83;;
49502;SDS011;35409;48.776;9.204;2023-05-07T04:42:54;5.15;;;4.00;;
49502;SDS011;35409;48.776;9.204;2023-05-07T04:45:19;5.43;;;3.72;;
49502;SDS011;35409;48.776;9.204;2023-05-07T04:47:45;5.00;;;3.63;;
49502;SDS011;35409;48.776;9.204;2023-05-07T04:50:10;7.30;;;3.83;;
49502;SDS011;35409;48.776;9.204;2023-05-07T04:52:36;4.80;;;3.92;;
49502;SDS011;35409;48.776;9.204;2023-05-07T04:55:02;4.45;;;3.72;;
49502;SDS011;35409;48.776;9.204;2023-05-07T04:57:28;5.30;;;4.00;;
49502;SDS011;35409;48.776;9.204;2023-05-07T04:59:53;4.13;;;3.30;;
49502;SDS011;35409;48.776;9.204;2023-05-07T05:02:19;3.42;;;3.10;;
49502;SDS011;35409;48.776;9.204;2023-05-07T05:04:45;5.13;;;3.40;;
49502;SDS011;35409;48.776;9.204;2023-05-07T05:07:10;4.13;;;3.28;;
49502;SDS011;35409;48.776;9.204;2023-05-07T05:09:36;4.72;;;3.90;;
49502;SDS011;35409;48.776;9.204;2023-05-07T05:12:02;4.68;;;3.53;;
49502;SDS011;35409;48.776;9.204;2023-05-07T05:14:27;4.03;;;3.40;;
49502;SDS011;35409;48.776;9.204;2023-05-07T05:16:53;4.30;;;3.80;;
49502;SDS011;35409;48.776;9.204;2023-05-07T05:19:19;5.75;;;3.67;;
49502;SDS011;35409;48.776;9.204;2023-05-07T05:21:45;7.05;;;3.90;;
49502;SDS011;35409;48.776;9.204;2023-05-07T05:24:10;4.63;;;3.80;;
49502;SDS011;35409;48.776;9.204;2023-05-07T05:26:36;5.47;;;3.30;;
49502;SDS011;35409;48.776;9.204;2023-05-07T05:29:01;9.02;;;3.95;;
49502;SDS011;35409;48.776;9.204;2023-05-07T05:31:27;4.07;;;3.30;;
49502;SDS011;35409;48.776;9.204;2023-05-07T05:33:53;5.70;;;3.90;;
49502;SDS011;35409;48.776;9.204;2023-05-07T05:36:18;6.15;;;4.25;;
49502;SDS011;35409;48.776;9.204;2023-05-07T05:38:44;7.03;;;4.13;;
49502;SDS011;35409;48.776;9.204;2023-05-07T05:41:10;4.15;;;3.42;;
49502;SDS011;35409;48.776;9.204;2023-05-07T05:43:35;5.35;;;4.10;;
49502;SDS011;35409;48.776;9.204;2023-05-07T05:46:01;5.88;;;4.13;;
49502;SDS011;35409;48.776;9.204;2023-05-07T05:48:28;5.72;;;4.15;;
49502;SDS011;35409;48.776;9.204;2023-05-07T05:50:54;7.15;;;4.72;;
49502;SDS011;35409;48.776;9.204;2023-05-07T05:53:19;5.68;;;4.78;;
49502;SDS011;35409;48.776;9.204;2023-05-07T05:55:45;9.45;;;5.43;;
49502;SDS011;35409;48.776;9.204;2023-05-07T05:58:11;9.38;;;5.05;;
49502;SDS011;35409;48.776;9.204;2023-05-07T06:00:36;6.53;;;5.45;;
49502;SDS011;35409;48.776;9.204;2023-05-07T06:03:02;7.30;;;5.32;;
49502;SDS011;35409;48.776;9.204;2023-05-07T06:05:28;6.90;;;5.15;;
49502;SDS011;35409;48.776;9.204;2023-05-07T06:07:53;10.98;;;5.07;;
49502;SDS011;35409;48.776;9.204;2023-05-07T06:10:19;7.20;;;5.10;;
49502;SDS011;35409;48.776;9.204;2023-05-07T06:12:44;9.40;;;4.90;;
49502;SDS011;35409;48.776;9.204;2023-05-07T06:15:10;9.35;;;5.88;;
49502;SDS011;35409;48.776;9.204;2023-05-07T06:17:36;8.30;;;5.65;;
49502;SDS011;35409;48.776;9.204;2023-05-07T06:20:01;7.57;;;5.25;;
49502;SDS011;35409;48.776;9.204;2023-05-07T06:22:27;7.43;;;5.32;;
49502;SDS011;35409;48.776;9.204;2023-05-07T06:24:52;9.80;;;5.18;;
49502;SDS011;35409;48.776;9.204;2023-05-07T06:27:18;8.88;;;6.18;;
49502;SDS011;35409;48.776;9.204;2023-05-07T06:29:44;9.77;;;6.55;;
49502;SDS011;35409;48.776;9.204;2023-05-07T06:32:09;10.10;;;6.28;;
49502;SDS011;35409;48.776;9.204;2023-05-07T06:34:36;9.55;;;6.65;;
49502;SDS011;35409;48.776;9.204;2023-05-07T06:37:03;9.27;;;5.30;;
49502;SDS011;35409;48.776;9.204;2023-05-07T06:39:29;7.80;;;5.72;;
49502;SDS011;35409;48.776;9.204;2023-05-07T06:41:54;8.48;;;6.35;;
49502;SDS011;35409;48.776;9.204;2023-05-07T06:44:20;9.07;;;6.32;;
49502;SDS011;35409;48.776;9.204;2023-05-07T06:46:46;11.60;;;6.65;;
49502;SDS011;35409;48.776;9.204;2023-05-07T06:49:14;10.27;;;6.63;;
49502;SDS011;35409;48.776;9.204;2023-05-07T06:51:40;9.07;;;6.93;;
49502;SDS011;35409;48.776;9.204;2023-05-07T06:54:06;7.97;;;6.28;;
49502;SDS011;35409;48.776;9.204;2023-05-07T06:56:32;7.72;;;6.40;;
49502;SDS011;35409;48.776;9.204;2023-05-07T06:58:59;11.50;;;6.85;;
49502;SDS011;35409;48.776;9.204;2023-05-07T07:01:25;10.80;;;6.60;;
49502;SDS011;35409;48.776;9.204;2023-05-07T07:03:51;9.85;;;5.97;;
49502;SDS011;35409;48.776;9.204;2023-05-07T07:06:16;7.25;;;5.80;;
49502;SDS011;35409;48.776;9.204;2023-05-07T07:08:42;10.77;;;6.50;;
49502;SDS011;35409;48.776;9.204;2023-05-07T07:11:08;12.73;;;5.78;;
49502;SDS011;35409;48.776;9.204;2023-05-07T07:13:35;6.97;;;5.43;;
49502;SDS011;35409;48.776;9.204;2023-05-07T07:16:01;7.47;;;5.88;;
49502;SDS011;35409;48.776;9.204;2023-05-07T07:18:27;7.00;;;5.63;;
49502;SDS011;35409;48.776;9.204;2023-05-07T07:20:53;11.52;;;5.50;;
49502;SDS011;35409;48.776;9.204;2023-05-07T07:23:19;8.02;;;5.28;;
49502;SDS011;35409;48.776;9.204;2023-05-07T07:25:45;6.43;;;4.68;;
49502;SDS011;35409;48.776;9.204;2023-05-07T07:28:10;5.53;;;4.53;;
49502;SDS011;35409;48.776;9.204;2023-05-07T07:30:37;6.93;;;4.38;;
49502;SDS011;35409;48.776;9.204;2023-05-07T07:33:03;8.30;;;4.72;;
49502;SDS011;35409;48.776;9.204;2023-05-07T07:35:29;9.23;;;4.35;;
49502;SDS011;35409;48.776;9.204;2023-05-07T07:37:55;6.47;;;3.90;;
49502;SDS011;35409;48.776;9.204;2023-05-07T07:40:20;8.60;;;4.10;;
49502;SDS011;35409;48.776;9.204;2023-05-07T07:42:46;5.90;;;3.40;;
49502;SDS011;35409;48.776;9.204;2023-05-07T07:45:12;7.88;;;3.53;;
49502;SDS011;35409;48.776;9.204;2023-05-07T07:47:38;4.38;;;3.50;;
49502;SDS011;35409;48.776;9.204;2023-05-07T07:50:04;3.05;;;2.75;;
49502;SDS011;35409;48.776;9.204;2023-05-07T07:52:30;3.50;;;2.42;;
49502;SDS011;35409;48.776;9.204;2023-05-07T07:54:56;3.35;;;3.03;;
49502;SDS011;35409;48.776;9.204;2023-05-07T07:57:22;6.30;;;3.13;;
49502;SDS011;35409;48.776;9.204;2023-05-07T07:59:47;4.47;;;3.13;;
49502;SDS011;35409;48.776;9.204;2023-05-07T08:02:13;6.25;;;2.95;;
49502;SDS011;35409;48.776;9.204;2023-05-07T08:04:39;3.60;;;2.40;;
49502;SDS011;35409;48.776;9.204;2023-05-07T08:07:05;3.05;;;2.47;;
49502;SDS011;35409;48.776;9.204;2023-05-07T08:09:31;2.63;;;1.90;;
49502;SDS011;35409;48.776;9.204;2023-05-07T08:11:56;2.30;;;2.10;;
49502;SDS011;35409;48.776;9.204;2023-05-07T08:14:22;2.72;;;2.33;;
49502;SDS011;35409;48.776;9.204;2023-05-07T08:16:48;2.65;;;2.10;;
49502;SDS011;35409;48.776;9.204;2023-05-07T08:19:13;3.65;;;2.20;;
49502;SDS011;35409;48.776;9.204;2023-05-07T08:21:39;3.13;;;1.95;;
49502;SDS011;35409;48.776;9.204;2023-05-07T08:24:05;2.78;;;2.10;;
49502;SDS011;35409;48.776;9.204;2023-05-07T08:26:31;3.88;;;2.10;;
49502;SDS011;35409;48.776;9.204;2023-05-07T08:28:57;2.17;;;1.75;;
49502;SDS011;35409;48.776;9.204;2023-05-07T08:31:22;3.33;;;2.40;;
49502;SDS011;35409;48.776;9.204;2023-05-07T08:33:48;3.40;;;2.00;;
49502;SDS011;35409;48.776;9.204;2023-05-07T08:36:14;3.50;;;2.53;;
49502;SDS011;35409;48.776;9.204;2023-05-07T08:38:40;5.13;;;3.20;;
49502;SDS011;35409;48.776;9.204;2023-05-07T08:41:09;4.00;;;2.08;;
49502;SDS011;35409;48.776;9.204;2023-05-07T08:43:35;4.38;;;2.60;;
49502;SDS011;35409;48.776;9.204;2023-05-07T08:46:01;4.28;;;2.15;;
49502;SDS011;35409;48.776;9.204;2023-05-07T08:48:28;3.38;;;2.28;;
49502;SDS011;35409;48.776;9.204;2023-05-07T08:50:55;3.00;;;2.03;;
49502;SDS011;35409;48.776;9.204;2023-05-07T08:53:21;3.25;;;2.40;;
49502;SDS011;35409;48.776;9.204;2023-05-07T08:55:47;3.08;;;1.88;;
49502;SDS011;35409;48.776;9.204;2023-05-07T08:58:13;5.90;;;2.22;;
49502;SDS011;35409;48.776;9.204;2023-05-07T09:00:39;3.65;;;2.42;;
49502;SDS011;35409;48.776;9.204;2023-05-07T09:03:06;3.63;;;2.17;;
49502;SDS011;35409;48.776;9.204;2023-05-07T09:05:32;5.30;;;1.90;;
49502;SDS011;35409;48.776;9.204;2023-05-07T09:08:05;3.90;;;1.83;;
49502;SDS011;35409;48.776;9.204;2023-05-07T09:10:35;5.18;;;2.17;;
49502;SDS011;35409;48.776;9.204;2023-05-07T09:13:01;2.95;;;2.10;;
49502;SDS011;35409;48.776;9.204;2023-05-07T09:15:29;2.22;;;1.95;;
49502;SDS011;35409;48.776;9.204;2023-05-07T09:17:59;5.45;;;1.90;;
49502;SDS011;35409;48.776;9.204;2023-05-07T09:20:26;2.47;;;1.83;;
49502;SDS011;35409;48.776;9.204;2023-05-07T09:22:51;3.60;;;1.60;;
49502;SDS011;35409;48.776;9.204;2023-05-07T09:25:27;1.88;;;1.67;;
49502;SDS011;35409;48.776;9.204;2023-05-07T09:27:54;2.70;;;1.92;;
49502;SDS011;35409;48.776;9.204;2023-05-07T09:30:20;3.13;;;1.90;;
49502;SDS011;35409;48.776;9.204;2023-05-07T09:32:45;2.53;;;2.08;;
49502;SDS011;35409;48.776;9.204;2023-05-07T09:35:15;2.42;;;1.75;;
49502;SDS011;35409;48.776;9.204;2023-05-07T09:37:42;3.70;;;2.25;;
49502;SDS011;35409;48.776;9.204;2023-05-07T09:40:07;3.72;;;2.00;;
49502;SDS011;35409;48.776;9.204;2023-05-07T09:42:44;5.95;;;2.25;;
49502;SDS011;35409;48.776;9.204;2023-05-07T09:45:12;3.17;;;1.92;;
49502;SDS011;35409;48.776;9.204;2023-05-07T09:47:37;2.45;;;1.60;;
49502;SDS011;35409;48.776;9.204;2023-05-07T09:50:05;5.10;;;2.30;;
49502;SDS011;35409;48.776;9.204;2023-05-07T09:52:33;3.45;;;1.60;;
49502;SDS011;35409;48.776;9.204;2023-05-07T09:55:00;3.28;;;2.05;;
49502;SDS011;35409;48.776;9.204;2023-05-07T09:57:27;6.22;;;1.85;;
49502;SDS011;35409;48.776;9.204;2023-05-07T09:59:54;3.40;;;1.73;;
49502;SDS011;35409;48.776;9.204;2023-05-07T10:02:23;2.90;;;1.67;;
49502;SDS011;35409;48.776;9.204;2023-05-07T10:04:52;3.08;;;1.88;;
49502;SDS011;35409;48.776;9.204;2023-05-07T10:07:19;2.08;;;1.88;;
49502;SDS011;35409;48.776;9.204;2023-05-07T10:09:46;3.00;;;1.50;;
49502;SDS011;35409;48.776;9.204;2023-05-07T10:12:11;4.68;;;1.73;;
49502;SDS011;35409;48.776;9.204;2023-05-07T10:14:37;3.15;;;1.70;;
49502;SDS011;35409;48.776;9.204;2023-05-07T10:17:03;3.80;;;1.67;;
49502;SDS011;35409;48.776;9.204;2023-05-07T10:19:29;4.78;;;1.98;;
49502;SDS011;35409;48.776;9.204;2023-05-07T10:21:56;3.33;;;1.95;;
49502;SDS011;35409;48.776;9.204;2023-05-07T10:24:31;4.07;;;1.77;;
49502;SDS011;35409;48.776;9.204;2023-05-07T10:26:59;5.53;;;1.65;;
49502;SDS011;35409;48.776;9.204;2023-05-07T10:34:37;3.50;;;1.95;;
49502;SDS011;35409;48.776;9.204;2023-05-07T10:37:06;2.67;;;1.70;;
49502;SDS011;35409;48.776;9.204;2023-05-07T10:39:34;2.08;;;1.95;;
49502;SDS011;35409;48.776;9.204;2023-05-07T10:42:10;1.70;;;1.60;;
49502;SDS011;35409;48.776;9.204;2023-05-07T10:44:36;4.38;;;1.92;;
49502;SDS011;35409;48.776;9.204;2023-05-07T10:47:09;1.50;;;1.40;;
49502;SDS011;35409;48.776;9.204;2023-05-07T10:50:21;3.67;;;1.95;;
49502;SDS011;35409;48.776;9.204;2023-05-07T10:52:30;2.78;;;1.80;;
49502;SDS011;35409;48.776;9.204;2023-05-07T10:55:41;3.17;;;1.95;;
49502;SDS011;35409;48.776;9.204;2023-05-07T10:57:46;2.03;;;1.63;;
49502;SDS011;35409;48.776;9.204;2023-05-07T11:05:24;3.13;;;1.70;;
49502;SDS011;35409;48.776;9.204;2023-05-07T11:07:57;4.32;;;1.90;;
49502;SDS011;35409;48.776;9.204;2023-05-07T11:10:47;2.03;;;1.58;;
49502;SDS011;35409;48.776;9.204;2023-05-07T11:16:24;2.95;;;1.80;;
49502;SDS011;35409;48.776;9.204;2023-05-07T11:18:52;2.47;;;1.52;;
49502;SDS011;35409;48.776;9.204;2023-05-07T11:21:33;1.88;;;1.38;;
49502;SDS011;35409;48.776;9.204;2023-05-07T11:24:01;3.00;;;1.83;;
49502;SDS011;35409;48.776;9.204;2023-05-07T11:26:29;1.70;;;1.60;;
49502;SDS011;35409;48.776;9.204;2023-05-07T11:28:56;1.85;;;1.63;;
49502;SDS011;35409;48.776;9.204;2023-05-07T11:31:23;3.83;;;1.67;;
49502;SDS011;35409;48.776;9.204;2023-05-07T11:33:51;1.58;;;1.42;;
49502;SDS011;35409;48.776;9.204;2023-05-07T11:36:18;2.45;;;1.50;;
49502;SDS011;35409;48.776;9.204;2023-05-07T11:38:45;3.67;;;1.67;;
49502;SDS011;35409;48.776;9.204;2023-05-07T11:41:11;3.45;;;1.85;;
49502;SDS011;35409;48.776;9.204;2023-05-07T11:43:36;5.22;;;2.08;;
49502;SDS011;35409;48.776;9.204;2023-05-07T11:46:09;3.70;;;1.60;;
49502;SDS011;35409;48.776;9.204;2023-05-07T11:48:35;2.42;;;1.88;;
49502;SDS011;35409;48.776;9.204;2023-05-07T11:51:02;2.72;;;1.80;;
49502;SDS011;35409;48.776;9.204;2023-05-07T11:53:39;2.20;;;2.00;;
49502;SDS011;35409;48.776;9.204;2023-05-07T11:56:08;2.17;;;1.92;;
49502;SDS011;35409;48.776;9.204;2023-05-07T11:58:34;4.65;;;2.03;;
49502;SDS011;35409;48.776;9.204;2023-05-07T12:01:00;2.53;;;2.00;;
49502;SDS011;35409;48.776;9.204;2023-05-07T12:03:26;4.38;;;1.77;;
49502;SDS011;35409;48.776;9.204;2023-05-07T12:05:51;3.67;;;1.90;;
49502;SDS011;35409;48.776;9.204;2023-05-07T12:08:17;5.00;;;2.08;;
49502;SDS011;35409;48.776;9.204;2023-05-07T12:10:44;2.80;;;2.10;;
49502;SDS011;35409;48.776;9.204;2023-05-07T12:13:16;4.68;;;1.70;;
49502;SDS011;35409;48.776;9.204;2023-05-07T12:15:45;3.17;;;2.05;;
49502;SDS011;35409;48.776;9.204;2023-05-07T12:18:12;4.43;;;1.77;;
49502;SDS011;35409;48.776;9.204;2023-05-07T12:20:38;2.75;;;1.27;;
49502;SDS011;35409;48.776;9.204;2023-05-07T12:23:04;2.80;;;1.58;;
49502;SDS011;35409;48.776;9.204;2023-05-07T12:25:40;7.07;;;2.20;;
49502;SDS011;35409;48.776;9.204;2023-05-07T12:28:12;11.13;;;3.83;;
49502;SDS011;35409;48.776;9.204;2023-05-07T12:30:40;7.97;;;3.58;;
49502;SDS011;35409;48.776;9.204;2023-05-07T12:33:07;7.70;;;3.65;;
49502;SDS011;35409;48.776;9.204;2023-05-07T12:35:36;6.03;;;2.92;;
49502;SDS011;35409;48.776;9.204;2023-05-07T12:38:13;6.03;;;3.05;;
49502;SDS011;35409;48.776;9.204;2023-05-07T12:40:41;7.30;;;2.75;;
49502;SDS011;35409;48.776;9.204;2023-05-07T12:43:25;10.63;;;4.40;;
49502;SDS011;35409;48.776;9.204;2023-05-07T12:45:53;8.15;;;3.83;;
49502;SDS011;35409;48.776;9.204;2023-05-07T12:48:20;8.48;;;3.83;;
49502;SDS011;35409;48.776;9.204;2023-05-07T12:50:52;9.32;;;4.47;;
49502;SDS011;35409;48.776;9.204;2023-05-07T12:53:20;9.30;;;5.30;;
49502;SDS011;35409;48.776;9.204;2023-05-07T12:55:47;4.90;;;2.75;;
49502;SDS011;35409;48.776;9.204;2023-05-07T12:58:20;6.25;;;2.63;;
49502;SDS011;35409;48.776;9.204;2023-05-07T13:00:50;6.78;;;3.03;;
49502;SDS011;35409;48.776;9.204;2023-05-07T13:05:49;6.25;;;2.50;;
49502;SDS011;35409;48.776;9.204;2023-05-07T13:11:10;7.72;;;2.20;;
49502;SDS011;35409;48.776;9.204;2023-05-07T13:13:37;11.68;;;4.15;;
49502;SDS011;35409;48.776;9.204;2023-05-07T13:16:05;8.90;;;3.20;;
49502;SDS011;35409;48.776;9.204;2023-05-07T13:18:32;10.45;;;3.25;;
49502;SDS011;35409;48.776;9.204;2023-05-07T13:20:58;8.63;;;3.35;;
49502;SDS011;35409;48.776;9.204;2023-05-07T13:23:25;13.20;;;4.10;;
49502;SDS011;35409;48.776;9.204;2023-05-07T13:25:51;8.13;;;2.20;;
49502;SDS011;35409;48.776;9.204;2023-05-07T13:28:21;2.05;;;1.35;;
49502;SDS011;35409;48.776;9.204;2023-05-07T13:30:48;13.60;;;2.50;;
49502;SDS011;35409;48.776;9.204;2023-05-07T13:33:14;9.35;;;2.45;;
49502;SDS011;35409;48.776;9.204;2023-05-07T13:35:41;6.60;;;2.78;;
49502;SDS011;35409;48.776;9.204;2023-05-07T13:38:06;6.30;;;2.50;;
49502;SDS011;35409;48.776;9.204;2023-05-07T13:40:33;7.93;;;2.63;;
49502;SDS011;35409;48.776;9.204;2023-05-07T13:42:59;4.85;;;2.33;;
49502;SDS011;35409;48.776;9.204;2023-05-07T13:45:27;5.85;;;3.75;;
49502;SDS011;35409;48.776;9.204;2023-05-07T13:47:54;4.00;;;3.10;;
49502;SDS011;35409;48.776;9.204;2023-05-07T13:50:20;5.38;;;3.28;;
49502;SDS011;35409;48.776;9.204;2023-05-07T13:52:46;3.78;;;2.75;;
49502;SDS011;35409;48.776;9.204;2023-05-07T13:55:19;4.80;;;2.50;;
49502;SDS011;35409;48.776;9.204;2023-05-07T14:00:12;7.82;;;3.10;;
49502;SDS011;35409;48.776;9.204;2023-05-07T14:02:38;9.25;;;2.55;;
49502;SDS011;35409;48.776;9.204;2023-05-07T14:05:05;5.22;;;2.40;;
49502;SDS011;35409;48.776;9.204;2023-05-07T14:07:31;6.40;;;1.90;;
49502;SDS011;35409;48.776;9.204;2023-05-07T14:10:14;2.35;;;2.03;;
49502;SDS011;35409;48.776;9.204;2023-05-07T14:12:51;4.72;;;2.20;;
49502;SDS011;35409;48.776;9.204;2023-05-07T14:15:19;6.70;;;2.50;;
49502;SDS011;35409;48.776;9.204;2023-05-07T14:17:51;3.42;;;2.47;;
49502;SDS011;35409;48.776;9.204;2023-05-07T14:20:23;5.50;;;2.70;;
49502;SDS011;35409;48.776;9.204;2023-05-07T14:22:53;7.10;;;2.90;;
49502;SDS011;35409;48.776;9.204;2023-05-07T14:25:22;3.85;;;1.83;;
49502;SDS011;35409;48.776;9.204;2023-05-07T14:27:51;5.68;;;2.53;;
49502;SDS011;35409;48.776;9.204;2023-05-07T14:30:20;2.85;;;2.40;;
49502;SDS011;35409;48.776;9.204;2023-05-07T14:32:49;3.80;;;2.10;;
49502;SDS011;35409;48.776;9.204;2023-05-07T14:35:16;3.72;;;2.00;;
49502;SDS011;35409;48.776;9.204;2023-05-07T14:37:43;2.75;;;2.35;;
49502;SDS011;35409;48.776;9.204;2023-05-07T14:40:10;3.47;;;2.10;;
49502;SDS011;35409;48.776;9.204;2023-05-07T14:42:39;2.90;;;2.20;;
49502;SDS011;35409;48.776;9.204;2023-05-07T14:45:06;7.47;;;2.30;;
49502;SDS011;35409;48.776;9.204;2023-05-07T14:47:33;2.78;;;2.38;;
49502;SDS011;35409;48.776;9.204;2023-05-07T14:50:00;3.78;;;2.42;;
49502;SDS011;35409;48.776;9.204;2023-05-07T14:52:27;4.20;;;2.20;;
49502;SDS011;35409;48.776;9.204;2023-05-07T14:54:54;2.10;;;1.90;;
49502;SDS011;35409;48.776;9.204;2023-05-07T14:57:21;2.83;;;1.58;;
49502;SDS011;35409;48.776;9.204;2023-05-07T14:59:46;2.80;;;1.70;;
49502;SDS011;35409;48.776;9.204;2023-05-07T15:02:12;2.53;;;1.70;;
49502;SDS011;35409;48.776;9.204;2023-05-07T15:04:38;2.58;;;1.60;;
49502;SDS011;35409;48.776;9.204;2023-05-07T15:07:10;2.83;;;2.08;;